createdAt,value
2022-09-15T00:02:25.743Z,13.90
2022-09-15T00:04:52.694Z,13.90
2022-09-15T00:07:20.746Z,13.90
2022-09-15T00:09:47.798Z,14.00
2022-09-15T00:12:14.666Z,14.00
2022-09-15T00:14:41.773Z,14.00
2022-09-15T00:17:09.011Z,14.00
2022-09-15T00:19:35.943Z,14.00
2022-09-15T00:22:02.854Z,14.00
2022-09-15T00:24:29.811Z,14.10
2022-09-15T00:26:57.060Z,14.10
2022-09-15T00:29:24.022Z,14.10
2022-09-15T00:31:52.691Z,14.00
2022-09-15T00:34:19.735Z,14.10
2022-09-15T00:36:46.595Z,14.10
2022-09-15T00:39:13.634Z,14.10
2022-09-15T00:41:40.971Z,14.00
2022-09-15T00:44:17.066Z,13.90
2022-09-15T00:46:54.817Z,13.90
2022-09-15T00:49:36.842Z,13.90
2022-09-15T00:52:19.365Z,13.90
2022-09-15T00:55:05.032Z,13.90
2022-09-15T00:57:44.395Z,13.90
2022-09-15T01:00:13.342Z,14.00
2022-09-15T01:02:41.104Z,13.90
2022-09-15T01:05:13.175Z,13.90
2022-09-15T01:07:46.439Z,13.90
2022-09-15T01:10:18.541Z,13.90
2022-09-15T01:12:45.830Z,13.90
2022-09-15T01:15:15.461Z,13.80
2022-09-15T01:17:48.510Z,13.80
2022-09-15T01:20:34.250Z,13.80
2022-09-15T01:23:16.485Z,13.80
2022-09-15T01:25:43.684Z,13.80
2022-09-15T01:28:22.899Z,13.80
2022-09-15T01:31:00.314Z,13.80
2022-09-15T01:33:46.039Z,13.90
2022-09-15T01:36:12.924Z,13.90
2022-09-15T01:38:39.989Z,14.00
2022-09-15T01:41:09.977Z,14.00
2022-09-15T01:43:41.361Z,14.00
2022-09-15T01:46:09.214Z,14.00
2022-09-15T01:48:36.516Z,14.10
2022-09-15T01:51:04.163Z,14.00
2022-09-15T01:53:31.194Z,14.00
2022-09-15T01:56:05.328Z,14.10
2022-09-15T01:58:36.877Z,14.00
2022-09-15T02:01:06.134Z,14.10
2022-09-15T02:03:45.513Z,14.10
2022-09-15T02:06:20.749Z,14.10
2022-09-15T02:08:52.757Z,14.00
2022-09-15T02:11:21.310Z,14.00
2022-09-15T02:14:00.827Z,14.00
2022-09-15T02:16:30.212Z,14.00
2022-09-15T02:19:00.133Z,14.00
2022-09-15T02:21:31.826Z,14.00
2022-09-15T02:24:03.625Z,14.00
2022-09-15T02:26:32.075Z,14.10
2022-09-15T02:29:00.502Z,14.00
2022-09-15T02:31:27.882Z,14.00
2022-09-15T02:33:57.851Z,14.00
2022-09-15T02:36:26.155Z,13.80
2022-09-15T02:39:03.736Z,13.80
2022-09-15T02:41:30.947Z,13.80
2022-09-15T02:43:57.918Z,13.90
2022-09-15T02:46:24.815Z,13.90
2022-09-15T02:48:51.713Z,14.00
2022-09-15T02:51:18.950Z,13.90
2022-09-15T02:53:46.542Z,13.90
2022-09-15T02:56:13.764Z,14.00
2022-09-15T02:58:40.755Z,14.00
2022-09-15T03:01:08.132Z,14.00
2022-09-15T03:03:42.765Z,14.00
2022-09-15T03:06:21.189Z,14.00
2022-09-15T03:09:01.367Z,14.00
2022-09-15T03:11:28.842Z,14.00
2022-09-15T03:13:57.090Z,14.00
2022-09-15T03:16:24.475Z,14.00
2022-09-15T03:18:52.445Z,13.90
2022-09-15T03:21:19.422Z,13.80
2022-09-15T03:23:46.252Z,13.70
2022-09-15T03:26:13.664Z,13.70
2022-09-15T03:28:40.734Z,13.70
2022-09-15T03:31:08.492Z,13.70
2022-09-15T03:33:36.086Z,13.60
2022-09-15T03:36:03.644Z,13.70
2022-09-15T03:38:30.554Z,13.70
2022-09-15T03:41:05.571Z,13.70
2022-09-15T03:43:32.648Z,13.70
2022-09-15T03:45:59.967Z,13.70
2022-09-15T03:48:27.469Z,13.80
2022-09-15T03:50:54.575Z,13.70
2022-09-15T03:53:21.541Z,13.70
2022-09-15T03:55:49.664Z,13.80
2022-09-15T03:58:17.721Z,13.80
2022-09-15T04:00:46.032Z,13.80
2022-09-15T04:03:13.330Z,13.80
2022-09-15T04:05:40.750Z,13.80
2022-09-15T04:08:07.589Z,13.70
2022-09-15T04:10:35.224Z,13.80
2022-09-15T04:13:02.160Z,13.80
2022-09-15T04:15:29.060Z,13.80
2022-09-15T04:17:55.958Z,13.70
2022-09-15T04:20:22.998Z,13.70
2022-09-15T04:22:50.392Z,13.70
2022-09-15T04:25:17.335Z,13.60
2022-09-15T04:27:44.278Z,13.50
2022-09-15T04:30:11.405Z,13.50
2022-09-15T04:32:38.423Z,13.40
2022-09-15T04:35:05.457Z,13.40
2022-09-15T04:37:33.597Z,13.40
2022-09-15T04:40:01.626Z,13.30
2022-09-15T04:42:28.706Z,13.40
2022-09-15T04:44:56.746Z,13.40
2022-09-15T04:47:23.630Z,13.40
2022-09-15T04:49:50.727Z,13.40
2022-09-15T04:52:17.686Z,13.30
2022-09-15T04:54:44.766Z,13.40
2022-09-15T04:57:12.082Z,13.50
2022-09-15T04:59:39.092Z,13.50
2022-09-15T05:02:06.183Z,13.60
2022-09-15T05:04:33.185Z,13.60
2022-09-15T05:07:00.190Z,13.70
2022-09-15T05:09:29.645Z,13.90
2022-09-15T05:11:56.793Z,14.40
2022-09-15T05:14:23.706Z,14.90
2022-09-15T05:16:50.669Z,15.00
2022-09-15T05:19:17.556Z,14.90
2022-09-15T05:21:44.477Z,14.70
2022-09-15T05:24:11.437Z,14.50
2022-09-15T05:26:38.461Z,14.30
2022-09-15T05:29:05.441Z,14.20
2022-09-15T05:31:33.971Z,14.00
2022-09-15T05:34:02.740Z,13.80
2022-09-15T05:36:30.143Z,13.80
2022-09-15T05:38:57.372Z,13.80
2022-09-15T05:41:24.852Z,13.80
2022-09-15T05:43:51.891Z,13.80
2022-09-15T05:46:19.488Z,13.80
2022-09-15T05:48:46.878Z,13.90
2022-09-15T05:51:14.439Z,13.90
2022-09-15T05:53:41.508Z,14.00
2022-09-15T05:56:11.443Z,14.00
2022-09-15T05:58:42.055Z,13.90
2022-09-15T06:01:11.747Z,13.90
2022-09-15T06:03:38.706Z,13.90
2022-09-15T06:06:06.218Z,13.90
2022-09-15T06:08:34.118Z,13.90
2022-09-15T06:11:02.531Z,13.90
2022-09-15T06:13:29.424Z,13.90
2022-09-15T06:16:00.661Z,14.00
2022-09-15T06:18:27.701Z,14.20
2022-09-15T06:20:57.333Z,14.40
2022-09-15T06:23:24.390Z,14.50
2022-09-15T06:25:51.263Z,14.60
2022-09-15T06:28:18.208Z,14.60
2022-09-15T06:30:49.494Z,14.60
2022-09-15T06:33:16.378Z,14.70
2022-09-15T06:35:43.264Z,14.60
2022-09-15T06:38:10.371Z,14.60
2022-09-15T06:40:37.542Z,14.50
2022-09-15T06:43:04.613Z,14.60
2022-09-15T06:45:31.615Z,14.50
2022-09-15T06:48:20.604Z,14.50
2022-09-15T06:50:45.643Z,14.50
2022-09-15T06:53:12.723Z,14.60
2022-09-15T06:55:39.762Z,14.50
2022-09-15T06:58:06.700Z,14.40
2022-09-15T07:00:34.140Z,14.40
2022-09-15T07:03:01.107Z,14.40
2022-09-15T07:05:28.579Z,14.40
2022-09-15T07:07:55.485Z,14.40
2022-09-15T07:10:22.344Z,14.30
2022-09-15T07:12:49.330Z,14.30
2022-09-15T07:15:16.251Z,14.20
2022-09-15T07:17:43.181Z,14.20
2022-09-15T07:20:13.797Z,14.30
2022-09-15T07:22:40.846Z,14.30
2022-09-15T07:25:07.842Z,14.40
2022-09-15T07:27:34.780Z,14.50
2022-09-15T07:30:02.332Z,14.60
2022-09-15T07:32:29.329Z,14.60
2022-09-15T07:34:58.531Z,14.60
2022-09-15T07:37:25.515Z,14.60
2022-09-15T07:39:52.438Z,14.70
2022-09-15T07:42:19.521Z,14.80
2022-09-15T07:44:47.365Z,14.80
2022-09-15T07:47:14.272Z,14.90
2022-09-15T07:49:42.276Z,15.00
2022-09-15T07:52:10.113Z,15.10
2022-09-15T07:54:37.090Z,15.10
2022-09-15T07:57:05.994Z,15.20
2022-09-15T07:59:33.182Z,15.10
2022-09-15T08:02:00.221Z,15.20
2022-09-15T08:04:27.208Z,15.40
2022-09-15T08:06:54.152Z,15.50
2022-09-15T08:09:21.141Z,15.80
2022-09-15T08:11:48.009Z,16.00
2022-09-15T08:14:14.926Z,16.30
2022-09-15T08:16:41.831Z,16.70
2022-09-15T08:19:08.671Z,16.80
2022-09-15T08:21:35.748Z,16.80
2022-09-15T08:24:02.860Z,16.70
2022-09-15T08:26:30.550Z,16.70
2022-09-15T08:28:58.200Z,16.70
2022-09-15T08:31:25.287Z,16.90
2022-09-15T08:33:53.637Z,17.00
2022-09-15T08:36:20.521Z,17.00
2022-09-15T08:38:47.508Z,17.30
2022-09-15T08:41:20.008Z,17.50
2022-09-15T08:43:51.652Z,17.60
2022-09-15T08:46:22.793Z,17.80
2022-09-15T08:48:54.211Z,18.20
2022-09-15T08:51:23.924Z,18.60
2022-09-15T08:53:53.673Z,18.90
2022-09-15T08:56:21.295Z,19.30
2022-09-15T08:58:48.440Z,19.60
2022-09-15T09:01:15.358Z,19.80
2022-09-15T09:04:02.015Z,19.90
2022-09-15T09:06:40.737Z,20.00
2022-09-15T09:09:25.689Z,20.30
2022-09-15T09:11:55.809Z,20.50
2022-09-15T09:14:29.002Z,20.60
2022-09-15T09:17:01.976Z,20.60
2022-09-15T09:19:55.397Z,20.30
2022-09-15T09:22:25.955Z,20.50
2022-09-15T09:24:55.053Z,20.60
2022-09-15T09:27:28.934Z,21.00
2022-09-15T09:30:04.873Z,21.20
2022-09-15T09:32:47.881Z,20.90
2022-09-15T09:35:15.038Z,20.90
2022-09-15T09:37:41.986Z,20.80
2022-09-15T09:40:13.339Z,21.00
2022-09-15T09:42:40.733Z,21.00
2022-09-15T09:45:11.999Z,20.80
2022-09-15T09:47:39.505Z,20.60
2022-09-15T09:50:44.682Z,20.40
2022-09-15T09:53:18.251Z,20.30
2022-09-15T09:55:46.062Z,20.20
2022-09-15T09:58:15.708Z,20.10
2022-09-15T10:00:42.653Z,20.00
2022-09-15T10:03:17.149Z,19.90
2022-09-15T10:05:46.481Z,20.00
2022-09-15T10:08:17.987Z,19.80
2022-09-15T10:10:56.122Z,19.40
2022-09-15T10:13:23.375Z,19.00
2022-09-15T10:15:53.542Z,18.70
2022-09-15T10:18:40.316Z,18.30
2022-09-15T10:21:09.241Z,18.00
2022-09-15T10:23:36.448Z,18.00
2022-09-15T10:26:15.510Z,18.10
2022-09-15T10:28:42.667Z,18.00
2022-09-15T10:31:16.329Z,18.00
2022-09-15T10:33:47.878Z,17.90
2022-09-15T10:36:14.762Z,17.60
2022-09-15T10:38:41.626Z,17.30
2022-09-15T10:41:20.437Z,17.20
2022-09-15T10:43:56.665Z,17.00
2022-09-15T10:46:28.033Z,16.90
2022-09-15T10:49:17.098Z,16.80
2022-09-15T10:51:53.280Z,17.10
2022-09-15T10:54:20.245Z,17.60
2022-09-15T10:56:49.193Z,18.20
2022-09-15T10:59:25.284Z,18.90
2022-09-15T11:02:01.592Z,19.50
2022-09-15T11:04:36.564Z,19.60
2022-09-15T11:07:07.223Z,19.50
2022-09-15T11:09:36.607Z,19.10
2022-09-15T11:12:16.914Z,18.90
2022-09-15T11:14:55.991Z,18.80
2022-09-15T11:17:29.101Z,18.50
2022-09-15T11:20:05.779Z,18.30
2022-09-15T11:22:38.654Z,17.90
2022-09-15T11:25:12.901Z,17.40
2022-09-15T11:27:42.588Z,17.00
2022-09-15T11:30:20.375Z,16.40
2022-09-15T11:32:47.316Z,16.10
2022-09-15T11:35:17.268Z,15.80
2022-09-15T11:37:47.727Z,15.60
2022-09-15T11:40:22.276Z,15.50
2022-09-15T11:42:52.036Z,15.40
2022-09-15T11:45:24.611Z,15.50
2022-09-15T11:47:54.740Z,15.70
2022-09-15T11:50:24.520Z,15.90
2022-09-15T11:52:54.587Z,16.00
2022-09-15T11:55:34.508Z,16.30
2022-09-15T11:58:22.380Z,16.60
2022-09-15T12:01:01.826Z,16.60
2022-09-15T12:03:35.149Z,16.60
2022-09-15T12:06:12.652Z,16.60
2022-09-15T12:08:43.617Z,16.60
2022-09-15T12:11:13.521Z,16.60
2022-09-15T12:13:41.138Z,16.60
2022-09-15T12:16:08.328Z,16.60
2022-09-15T12:18:48.435Z,16.60
2022-09-15T12:21:34.846Z,16.60
2022-09-15T12:24:04.980Z,16.90
2022-09-15T12:26:33.233Z,17.20
2022-09-15T12:29:04.356Z,17.40
2022-09-15T12:31:41.382Z,17.20
2022-09-15T12:34:08.522Z,17.10
2022-09-15T12:36:38.625Z,17.10
2022-09-15T12:39:22.665Z,16.80
2022-09-15T12:41:50.610Z,16.70
2022-09-15T12:44:24.090Z,16.40
2022-09-15T12:46:52.677Z,16.00
2022-09-15T12:49:21.594Z,15.90
2022-09-15T12:51:49.976Z,15.80
2022-09-15T12:54:23.251Z,16.10
2022-09-15T12:56:52.233Z,16.30
2022-09-15T12:59:22.996Z,16.60
2022-09-15T13:01:50.541Z,16.80
2022-09-15T13:04:50.264Z,17.10
2022-09-15T13:07:20.383Z,17.20
2022-09-15T13:09:59.639Z,17.30
2022-09-15T13:12:31.068Z,17.40
2022-09-15T13:15:00.012Z,17.10
2022-09-15T13:17:27.347Z,17.00
2022-09-15T13:19:56.415Z,17.00
2022-09-15T13:22:30.092Z,17.10
2022-09-15T13:25:10.876Z,17.40
2022-09-15T13:27:42.405Z,17.90
2022-09-15T13:30:21.666Z,18.20
2022-09-15T13:33:08.968Z,18.30
2022-09-15T13:35:54.717Z,18.40
2022-09-15T13:38:30.741Z,18.50
2022-09-15T13:40:58.808Z,18.50
2022-09-15T13:43:55.192Z,18.40
2022-09-15T13:46:22.297Z,18.40
2022-09-15T13:48:49.933Z,18.30
2022-09-15T13:51:23.768Z,18.30
2022-09-15T13:53:58.696Z,18.00
2022-09-15T13:56:27.920Z,17.80
2022-09-15T13:59:03.212Z,17.60
2022-09-15T14:01:35.935Z,17.50
2022-09-15T14:04:18.316Z,17.20
2022-09-15T14:06:46.987Z,17.00
2022-09-15T14:09:16.191Z,16.70
2022-09-15T14:11:44.150Z,16.50
2022-09-15T14:14:19.326Z,16.20
2022-09-15T14:16:49.737Z,16.00
2022-09-15T14:19:29.068Z,15.80
2022-09-15T14:21:58.488Z,15.50
2022-09-15T14:24:27.275Z,15.20
2022-09-15T14:26:54.474Z,15.00
2022-09-15T14:29:24.508Z,14.50
2022-09-15T14:31:51.888Z,13.70
2022-09-15T14:34:21.044Z,13.30
2022-09-15T14:37:08.319Z,13.10
2022-09-15T14:39:37.768Z,12.90
2022-09-15T14:42:29.669Z,13.00
2022-09-15T14:47:47.944Z,13.00
2022-09-15T14:50:19.448Z,13.00
2022-09-15T14:53:18.855Z,13.10
2022-09-15T14:55:58.070Z,13.20
2022-09-15T14:58:28.225Z,13.40
2022-09-15T15:01:00.291Z,13.60
2022-09-15T15:03:33.227Z,13.80
2022-09-15T15:06:25.440Z,14.00
2022-09-15T15:08:56.093Z,14.20
2022-09-15T15:11:23.109Z,14.30
2022-09-15T15:13:50.895Z,14.40
2022-09-15T15:16:23.057Z,14.40
2022-09-15T15:18:51.476Z,14.40
2022-09-15T15:21:31.328Z,14.30
2022-09-15T15:23:58.365Z,14.30
2022-09-15T15:26:26.555Z,14.30
2022-09-15T15:28:53.437Z,14.40
2022-09-15T15:31:25.217Z,14.20
2022-09-15T15:33:52.308Z,14.10
2022-09-15T15:36:24.123Z,14.00
2022-09-15T15:38:56.022Z,13.80
2022-09-15T15:41:27.718Z,13.60
2022-09-15T15:44:08.315Z,13.50
2022-09-15T15:46:52.502Z,13.40
2022-09-15T15:49:21.184Z,13.20
2022-09-15T15:51:48.876Z,13.10
2022-09-15T15:54:16.073Z,13.00
2022-09-15T15:56:42.972Z,12.80
2022-09-15T15:59:12.957Z,12.80
2022-09-15T16:01:40.324Z,13.00
2022-09-15T16:04:07.464Z,13.10
2022-09-15T16:06:35.320Z,13.00
2022-09-15T16:09:03.038Z,13.00
2022-09-15T16:11:29.958Z,12.90
2022-09-15T16:13:56.796Z,12.60
2022-09-15T16:16:25.060Z,12.50
2022-09-15T16:18:52.491Z,12.40
2022-09-15T16:21:21.507Z,12.30
2022-09-15T16:23:48.433Z,12.20
2022-09-15T16:26:17.701Z,12.10
2022-09-15T16:28:44.696Z,12.00
2022-09-15T16:31:15.039Z,12.10
2022-09-15T16:33:43.131Z,12.10
2022-09-15T16:36:12.513Z,12.10
2022-09-15T16:38:39.850Z,12.00
2022-09-15T16:41:12.557Z,11.90
2022-09-15T16:43:39.464Z,12.00
2022-09-15T16:46:06.771Z,12.00
2022-09-15T16:48:34.410Z,12.10
2022-09-15T16:51:23.083Z,12.10
2022-09-15T16:53:48.609Z,12.20
2022-09-15T16:56:15.866Z,12.20
2022-09-15T16:58:42.991Z,12.20
2022-09-15T17:01:17.129Z,12.30
2022-09-15T17:03:47.914Z,12.20
2022-09-15T17:06:15.822Z,12.30
2022-09-15T17:08:42.842Z,12.30
2022-09-15T17:11:17.437Z,12.30
2022-09-15T17:13:44.737Z,12.40
2022-09-15T17:16:13.491Z,12.40
2022-09-15T17:18:40.459Z,12.40
2022-09-15T17:21:09.650Z,12.40
2022-09-15T17:23:40.812Z,12.40
2022-09-15T17:26:12.148Z,12.30
2022-09-15T17:28:39.734Z,12.20
2022-09-15T17:31:11.690Z,12.20
2022-09-15T17:33:38.808Z,12.20
2022-09-15T17:36:05.989Z,12.30
2022-09-15T17:38:33.005Z,12.30
2022-09-15T17:41:00.031Z,12.30
2022-09-15T17:43:28.104Z,12.30
2022-09-15T17:45:55.469Z,12.40
2022-09-15T17:48:22.973Z,12.40
2022-09-15T17:50:50.282Z,12.30
2022-09-15T17:53:21.556Z,12.30
2022-09-15T17:55:48.884Z,12.30
2022-09-15T17:58:15.930Z,12.30
2022-09-15T18:00:43.625Z,12.30
2022-09-15T18:03:29.325Z,12.30
2022-09-15T18:05:56.985Z,12.30
2022-09-15T18:08:24.505Z,12.30
2022-09-15T18:10:51.448Z,12.40
2022-09-15T18:13:19.915Z,12.40
2022-09-15T18:15:46.840Z,12.40
2022-09-15T18:18:15.297Z,12.40
2022-09-15T18:20:42.414Z,12.40
2022-09-15T18:23:17.714Z,12.50
2022-09-15T18:25:44.728Z,12.50
2022-09-15T18:28:11.693Z,12.50
2022-09-15T18:30:42.743Z,12.50
2022-09-15T18:33:14.108Z,12.60
2022-09-15T18:35:41.377Z,12.60
2022-09-15T18:38:08.329Z,12.60
2022-09-15T18:40:35.429Z,12.60
2022-09-15T18:43:02.329Z,12.60
2022-09-15T18:45:29.204Z,12.50
2022-09-15T18:47:56.253Z,12.50
2022-09-15T18:50:24.047Z,12.50
2022-09-15T18:52:50.935Z,12.50
2022-09-15T18:55:19.221Z,12.50
2022-09-15T18:57:46.365Z,12.50
2022-09-15T19:00:14.893Z,12.50
2022-09-15T19:02:42.075Z,12.50
2022-09-15T19:05:11.588Z,12.50
2022-09-15T19:07:39.169Z,12.40
2022-09-15T19:10:06.929Z,12.40
2022-09-15T19:12:35.248Z,12.40
2022-09-15T19:15:02.789Z,12.40
2022-09-15T19:17:29.698Z,12.30
2022-09-15T19:19:56.558Z,12.30
2022-09-15T19:22:23.487Z,12.30
2022-09-15T19:24:50.522Z,12.30
2022-09-15T19:27:17.571Z,12.30
2022-09-15T19:29:44.637Z,12.30
2022-09-15T19:32:12.953Z,12.30
2022-09-15T19:34:41.960Z,12.20
2022-09-15T19:37:13.092Z,12.20
2022-09-15T19:39:42.135Z,12.20
2022-09-15T19:42:09.609Z,12.20
2022-09-15T19:44:36.651Z,12.10
2022-09-15T19:47:03.913Z,12.10
2022-09-15T19:49:30.900Z,12.10
2022-09-15T19:51:57.746Z,12.10
2022-09-15T19:54:25.868Z,12.00
2022-09-15T19:56:52.998Z,11.90
2022-09-15T19:59:20.113Z,11.80
2022-09-15T20:01:47.308Z,11.70
2022-09-15T20:04:14.998Z,11.60
2022-09-15T20:06:42.293Z,11.50
2022-09-15T20:09:09.429Z,11.50
2022-09-15T20:11:36.653Z,11.20
2022-09-15T20:14:04.008Z,11.10
2022-09-15T20:16:30.869Z,11.00
2022-09-15T20:21:55.570Z,11.00
2022-09-15T20:24:23.737Z,10.90
2022-09-15T20:26:51.330Z,10.90
2022-09-15T20:29:18.576Z,10.90
2022-09-15T20:31:45.508Z,11.00
2022-09-15T20:34:12.529Z,11.00
2022-09-15T20:36:39.861Z,11.00
2022-09-15T20:39:13.179Z,11.20
2022-09-15T20:41:41.163Z,11.20
2022-09-15T20:44:09.589Z,11.20
2022-09-15T20:46:36.945Z,11.10
2022-09-15T20:49:04.955Z,11.10
2022-09-15T20:51:33.775Z,11.10
2022-09-15T20:54:02.134Z,11.10
2022-09-15T20:56:29.945Z,11.10
2022-09-15T20:58:58.614Z,11.10
2022-09-15T21:01:26.847Z,11.00
2022-09-15T21:03:55.810Z,10.80
2022-09-15T21:06:24.193Z,10.60
2022-09-15T21:08:51.461Z,10.40
2022-09-15T21:11:19.567Z,10.40
2022-09-15T21:13:47.252Z,10.40
2022-09-15T21:16:15.719Z,10.50
2022-09-15T21:18:43.465Z,10.70
2022-09-15T21:21:11.932Z,10.80
2022-09-15T21:23:43.297Z,10.90
2022-09-15T21:26:11.545Z,10.90
2022-09-15T21:28:38.850Z,10.90
2022-09-15T21:31:10.213Z,10.80
2022-09-15T21:33:38.274Z,10.70
2022-09-15T21:36:05.578Z,10.70
2022-09-15T21:38:32.954Z,10.70
2022-09-15T21:40:59.862Z,10.80
2022-09-15T21:43:35.319Z,11.00
2022-09-15T21:46:04.013Z,11.10
2022-09-15T21:48:31.954Z,11.20
2022-09-15T21:50:59.122Z,11.30
2022-09-15T21:53:26.447Z,11.40
2022-09-15T21:55:53.656Z,11.40
2022-09-15T21:58:21.751Z,11.40
2022-09-15T22:00:49.426Z,11.20
2022-09-15T22:03:17.614Z,11.10
2022-09-15T22:05:46.015Z,11.10
2022-09-15T22:08:13.992Z,11.10
2022-09-15T22:10:41.528Z,11.10
2022-09-15T22:13:09.097Z,11.10
2022-09-15T22:15:36.488Z,11.20
2022-09-15T22:18:03.981Z,11.20
2022-09-15T22:20:31.226Z,11.20
2022-09-15T22:23:01.455Z,11.30
2022-09-15T22:25:29.133Z,11.20
2022-09-15T22:27:56.262Z,11.20
2022-09-15T22:30:23.180Z,11.20
2022-09-15T22:32:50.138Z,11.10
2022-09-15T22:35:17.565Z,11.10
2022-09-15T22:37:44.582Z,11.00
2022-09-15T22:40:11.582Z,10.70
2022-09-15T22:42:38.953Z,10.50
2022-09-15T22:45:06.261Z,10.50
2022-09-15T22:47:34.158Z,10.50
2022-09-15T22:50:01.136Z,10.50
2022-09-15T22:52:28.128Z,10.50
2022-09-15T22:54:55.100Z,10.50
2022-09-15T22:57:21.961Z,10.60
2022-09-15T22:59:49.096Z,10.60
2022-09-15T23:02:16.364Z,10.80
2022-09-15T23:04:43.448Z,10.90
2022-09-15T23:07:10.444Z,10.70
2022-09-15T23:09:37.374Z,10.10
2022-09-15T23:12:05.236Z,9.90
2022-09-15T23:14:32.463Z,9.90
2022-09-15T23:16:59.379Z,9.90
2022-09-15T23:19:26.390Z,9.80
2022-09-15T23:21:53.279Z,9.60
2022-09-15T23:24:20.587Z,9.70
2022-09-15T23:26:47.493Z,9.90
2022-09-15T23:29:14.637Z,10.00
2022-09-15T23:31:41.678Z,10.20
2022-09-15T23:34:08.626Z,10.30
2022-09-15T23:36:35.666Z,10.40
2022-09-15T23:39:02.595Z,10.50
2022-09-15T23:41:29.472Z,10.30
2022-09-15T23:43:57.110Z,10.40
2022-09-15T23:46:24.120Z,10.40
2022-09-15T23:48:51.120Z,10.50
2022-09-15T23:51:18.058Z,10.50
2022-09-15T23:53:44.991Z,10.60
2022-09-15T23:56:11.965Z,10.70
2022-09-15T23:58:39.187Z,10.70
